Franeker, Netherlands
Current Conditions -  °F | °C
As of 3:50 AM on Thursday 23 Oct 2014 (Local Time) from EHLW Reporting Station
Haze Haze  
Wind Chill: 52°   Ceiling: 400
Heat Index: 52°   Visibility: 1.8mi
Dew Point: 50°   Wind: 6mph
Humidity: 94%   Direction: 200°SSW
Pressure: 30.12"   Gusts: NA
Location:  53.19°N, 5.54°E
Report Text: EHLW 230150Z AUTO 20005KT 3000 R23/2900 BR SCT003 BKN004 BKN007 11/10 Q1020 REDZ YLO
Loading
Personal Weather Stations






























Interactive Weather Map
Tropical Storm Tracking
New forecast layout! Learn more

10-Day Weather Forecast

Advertisements
Track Severe Weather on mobile